Brandon, SD

6:35 AM CDT on April 19, 2015 (GMT -0500)
IEM | | Change Station
CLOSE
Current Station
Personal Weather Station
Location: Brandon, SD
Elevation: 1368 ft
Nearby Weather Stations

Elev 1368 ft 43.60 °N, 96.58 °W | Updated 19 minutes ago

Overcast
Overcast
54 °F
Feels Like 54 °F
N
12
Wind Variable Wind from West
Gusts 0.0 mph

Today
High -- | Low -- °F
--% Chance of Precip.
Yesterday
High -- | Low -- °F
Precip. -- in
6:37 AM 8:14 PM
New Moon, 1% visible
Pressure 29.73 in
Visibility 7.0 miles
Clouds Mostly Cloudy 600 ft
Mostly Cloudy 1100 ft
Overcast 1700 ft
Dew Point 54 °F
Humidity 100%
Rainfall in
Snow Depth Not available.
UV 0 out of 12
Pollen 9.50 out of 12
Air Quality Not available.
Flu Activity Sporadic
METAR KFSD 191056Z 29010KT 7SM BKN006 BKN011 OVC017 12/11 A2972 RMK AO2 SLP065 T01220106

More Conditions Fewer Conditions

Pressure 29.73 in
Visibility 7.0 miles
Clouds Mostly Cloudy 600 ft
Mostly Cloudy 1100 ft
Overcast 1700 ft
Dew Point 54 °F
Humidity 100%
Rainfall in
Snow Depth Not available.
UV 0 out of 12
Pollen 9.50 out of 12
Air Quality Not available.
Flu Activity Sporadic
METAR KFSD 191056Z 29010KT 7SM BKN006 BKN011 OVC017 12/11 A2972 RMK AO2 SLP065 T01220106

More Conditions Fewer Conditions

10-Day Weather Forecast

Almanac

Astronomy

Apr. 19, 2015 Rise Set
Actual Time
Civil Twilight
Nautical Twilight
Astronomical Twilight
Moon
Length of Visible Light
Length of Day
Tomorrow will be .
, % of the Moon is Illuminated

Today's Extremes

State Highs State Lows

Community

WunderPhotos

Upload Photos

1,814,758 photos uploaded!

WunderBlogs® & News

Nearby

Air Quality

  Air Quality AQ Index Pollutant
Not available.

Snow Depth

Station Depth Elevation

Earthquake Activity

City Distance Mag. Time & Date
Minimum magnitude displayed is 2.5.

Coastal Water Temperatures

Place Temperature

Stations

Nearby Weather Stations

Station Location Temp. Windchill Dew Point Humidity Wind Precip. Elev Updated Type